Astana International Airport
UACC : now visible

Airfield :











YOU CAN JOIN US ON...

 
LOGIN :

Register | Disclaimer

   EN    FR    IT 

 









Legend :    VFR   Marginal VFR   IFR   Intensive IFR   Very Intensive IFR
Visi :
Ceiling :
>= 8 km
>= 3000ft
5 to 8 km
1000 to 3000 ft
1500m to 5 km
500 to 1000 ft
800 to 1500m
200 to 500 ft
< 800m
< 200 ft
Symbols :   Thunderstorms  Fog  Heavy snow  Heavy precipitations  Wind > 20 kt







- Airport Elevation : 1165 ft
- IATA code : TSE


UACC - Astana International

CURRENT METAR :
  • 180530Z 25011G16MPS 1400 SN BLSN SCT011 OVC026 M08/M08 Q0999 WS RWY22 R22/85//50 TEMPO 24015G20MPS 0500 SN BLSN RMK QFE718/0958

EXPIRED METARs :
  • 180500Z 25011MPS 0900 R22/0900N SN BLSN OVC011 M07/M08 Q0998 WS RWY22 R22/85//50 TEMPO 24015G20MPS 0500 SN BLSN RMK QFE717/0957
  • 180430Z 25012G19MPS 0700 R22/0800N SN BLSN OVC011 M07/M08 Q0996 WS RWY22 R22/85//50 TEMPO 24015G20MPS 0500 SN BLSN RMK QFE717/0956
  • 180400Z 25011MPS 0650 R22/0600V1100D SN BLSN SCT007 OVC026 M05/M06 Q0995 R22/85//50 TEMPO 24013G18MPS 0500 SN BLSN RMK QFE716/0954
  • 180330Z 25008MPS 1100 SN BLSN SCT006 OVC026 M02/M02 Q0994 R22/452045 NOSIG RMK QBB180 QFE715/0953
  • 180300Z 25008MPS 4700 -SN DRSN SCT005 OVC026 M02/M02 Q0993 R22/452045 NOSIG RMK QBB170 QFE714/0952

TAF TAF UACC
Valid from the 18 at 06:00 until the 19 at 06:00 UTC


180500Z 1806/1906 23008G13MPS 2000 SN BLSN SCT008 OVC020 TXM02/1906Z TNM07/1806Z
TEMPO 1806/1809 22013G18MPS 0600 SHSN BLSN BKN005 BKN015CB
BECMG 1809/1811 6000 -SN DRSN
FM181700 19008G13MPS 3100 SN SCT008 OVC020
TEMPO 1820/1906 20012G17MPS 0500 SHSN BLSN BKN005 BKN015CB
UACC FIR / Asia



MET'MAP, your aeronautical weather chart ! - Copyright ORBIFLY December 2007 - Disclaimer

ORBIFLY MET'MAP TEAM :

Programming & Development : Alexandra Zaïnal
Concept & Development : Baudouin d'Aumeries
Co-Development & Prog : Marc-Olivier Méhu
Technical & hardware support : Manuel Goepfert

Contact : metmap@orbifly.com




SOURCES & CREDITS :

   NOAA       Earth
Advisory